Jiutai, China
Current Conditions -  °F | °C
As of 4:00 PM on Monday 24 Nov 2014 (Local Time) from ZYCC Reporting Station
Clear Clear  
Wind Chill: 28°   Ceiling: Unl
Heat Index: 28°   Visibility: 6mi
Dew Point:   Wind: 2mph
Humidity: 43%   Direction: NA
Pressure: 30.36"   Gusts: NA
Location:  44.15°N, 125.84°E
Report Text: ZYCC 240800Z VRB01MPS CAVOK M02/M13 Q1028 NOSIG
Loading
Personal Weather Stations






























Interactive Weather Map New forecast layout! Learn more

10-Day Weather Forecast

Advertisements
Track Severe Weather on mobile